createdAt,value
2023-05-25T00:01:55.051Z,12.90
2023-05-25T00:04:27.675Z,12.75
2023-05-25T00:06:55.887Z,12.85
2023-05-25T00:09:25.784Z,13.06
2023-05-25T00:11:53.849Z,13.56
2023-05-25T00:14:23.953Z,14.27
2023-05-25T00:16:53.764Z,14.43
2023-05-25T00:19:22.048Z,14.17
2023-05-25T00:21:50.429Z,13.84
2023-05-25T00:24:18.702Z,13.58
2023-05-25T00:26:47.844Z,13.61
2023-05-25T00:29:15.855Z,13.53
2023-05-25T00:31:44.291Z,13.38
2023-05-25T00:34:12.374Z,13.23
2023-05-25T00:36:40.523Z,13.13
2023-05-25T00:39:11.106Z,13.11
2023-05-25T00:41:42.082Z,13.01
2023-05-25T00:44:10.885Z,13.02
2023-05-25T00:46:39.641Z,12.98
2023-05-25T00:49:07.706Z,12.87
2023-05-25T00:51:36.914Z,12.93
2023-05-25T00:54:04.756Z,12.89
2023-05-25T00:56:38.674Z,12.99
2023-05-25T00:59:08.497Z,12.92
2023-05-25T01:01:40.584Z,12.98
2023-05-25T01:04:11.589Z,13.05
2023-05-25T01:06:43.761Z,13.19
2023-05-25T01:09:16.649Z,12.88
2023-05-25T01:11:49.702Z,12.86
2023-05-25T01:14:22.113Z,12.51
2023-05-25T01:16:52.090Z,12.40
2023-05-25T01:19:20.496Z,12.37
2023-05-25T01:22:08.938Z,12.45
2023-05-25T01:24:55.162Z,12.53
2023-05-25T01:27:32.857Z,12.53
2023-05-25T01:30:03.167Z,12.65
2023-05-25T01:32:33.866Z,12.50
2023-05-25T01:35:04.880Z,12.48
2023-05-25T01:37:37.965Z,12.61
2023-05-25T01:40:06.856Z,12.66
2023-05-25T01:42:34.684Z,13.05
2023-05-25T01:45:06.053Z,13.42
2023-05-25T01:48:18.969Z,13.28
2023-05-25T01:51:16.633Z,12.98
2023-05-25T01:53:53.937Z,12.75
2023-05-25T01:56:23.677Z,12.87
2023-05-25T01:58:53.580Z,12.87
2023-05-25T02:01:23.715Z,12.89
2023-05-25T02:03:52.876Z,12.86
2023-05-25T02:06:21.418Z,12.87
2023-05-25T02:08:49.622Z,12.93
2023-05-25T02:11:26.481Z,13.03
2023-05-25T02:13:55.496Z,13.36
2023-05-25T02:16:24.057Z,14.44
2023-05-25T02:18:53.534Z,14.29
2023-05-25T02:21:24.269Z,13.92
2023-05-25T02:23:54.449Z,13.99
2023-05-25T02:26:22.522Z,14.18
2023-05-25T02:28:52.400Z,14.35
2023-05-25T02:31:20.842Z,14.54
2023-05-25T02:33:49.018Z,15.02
2023-05-25T02:36:17.486Z,15.45
2023-05-25T02:38:47.836Z,15.45
2023-05-25T02:41:16.718Z,15.65
2023-05-25T02:43:45.548Z,15.53
2023-05-25T02:46:13.960Z,15.76
2023-05-25T02:48:43.779Z,15.72
2023-05-25T02:51:12.280Z,15.38
2023-05-25T02:53:40.203Z,15.57
2023-05-25T02:56:10.654Z,15.11
2023-05-25T02:58:39.495Z,14.59
2023-05-25T03:01:11.448Z,14.66
2023-05-25T03:03:40.439Z,14.85
2023-05-25T03:06:08.514Z,14.75
2023-05-25T03:08:36.665Z,14.93
2023-05-25T03:11:05.058Z,15.05
2023-05-25T03:13:34.219Z,14.97
2023-05-25T03:16:02.552Z,14.67
2023-05-25T03:18:30.961Z,14.66
2023-05-25T03:20:58.899Z,14.79
2023-05-25T03:23:27.007Z,14.98
2023-05-25T03:25:55.769Z,14.91
2023-05-25T03:28:24.052Z,14.92
2023-05-25T03:30:52.967Z,15.04
2023-05-25T03:33:21.454Z,15.10
2023-05-25T03:35:49.558Z,15.28
2023-05-25T03:38:17.612Z,15.32
2023-05-25T03:40:46.224Z,14.94
2023-05-25T03:43:14.178Z,14.91
2023-05-25T03:45:44.759Z,14.87
2023-05-25T03:48:13.334Z,14.98
2023-05-25T03:50:41.637Z,15.10
2023-05-25T03:53:10.021Z,15.16
2023-05-25T03:55:39.301Z,15.24
2023-05-25T03:58:10.969Z,15.29
2023-05-25T04:00:39.550Z,15.45
2023-05-25T04:03:11.771Z,15.47
2023-05-25T04:05:39.813Z,15.66
2023-05-25T04:08:10.280Z,16.08
2023-05-25T04:10:38.285Z,16.46
2023-05-25T04:13:06.286Z,16.44
2023-05-25T04:15:35.085Z,16.61
2023-05-25T04:18:03.828Z,16.55
2023-05-25T04:20:33.048Z,16.42
2023-05-25T04:23:01.701Z,16.46
2023-05-25T04:25:43.268Z,16.29
2023-05-25T04:28:12.741Z,16.17
2023-05-25T04:30:41.982Z,15.97
2023-05-25T04:33:14.347Z,16.01
2023-05-25T04:35:47.460Z,16.03
2023-05-25T04:38:18.022Z,16.19
2023-05-25T04:40:49.479Z,16.37
2023-05-25T04:43:21.095Z,17.06
2023-05-25T04:45:49.235Z,17.06
2023-05-25T04:48:18.374Z,17.19
2023-05-25T04:50:47.077Z,17.35
2023-05-25T04:53:15.952Z,17.34
2023-05-25T04:55:44.706Z,17.36
2023-05-25T04:58:14.654Z,17.48
2023-05-25T05:00:43.745Z,17.22
2023-05-25T05:03:12.475Z,16.67
2023-05-25T05:05:40.613Z,16.82
2023-05-25T05:08:09.493Z,16.53
2023-05-25T05:10:37.988Z,16.63
2023-05-25T05:13:06.738Z,16.73
2023-05-25T05:15:34.820Z,16.53
2023-05-25T05:18:04.351Z,16.13
2023-05-25T05:20:33.127Z,15.93
2023-05-25T05:23:01.400Z,15.88
2023-05-25T05:25:29.740Z,15.80
2023-05-25T05:27:58.153Z,15.72
2023-05-25T05:30:26.615Z,15.66
2023-05-25T05:32:55.008Z,15.61
2023-05-25T05:35:24.089Z,15.54
2023-05-25T05:37:52.343Z,15.47
2023-05-25T05:40:20.975Z,15.47
2023-05-25T05:42:49.204Z,15.50
2023-05-25T05:45:17.421Z,15.45
2023-05-25T05:47:46.228Z,15.49
2023-05-25T05:50:14.294Z,15.51
2023-05-25T05:52:42.701Z,15.56
2023-05-25T05:55:11.905Z,15.59
2023-05-25T05:57:40.192Z,15.60
2023-05-25T06:00:20.964Z,15.60
2023-05-25T06:02:51.894Z,15.63
2023-05-25T06:05:21.322Z,15.74
2023-05-25T06:07:50.031Z,15.65
2023-05-25T06:10:19.794Z,15.53
2023-05-25T06:13:09.527Z,15.42
2023-05-25T06:15:38.088Z,15.47
2023-05-25T06:18:07.208Z,15.47
2023-05-25T06:20:51.372Z,15.56
2023-05-25T06:23:19.807Z,15.85
2023-05-25T06:25:51.627Z,16.08
2023-05-25T06:28:20.152Z,16.23
2023-05-25T06:31:02.170Z,16.18
2023-05-25T06:33:30.452Z,15.88
2023-05-25T06:36:00.970Z,15.99
2023-05-25T06:38:29.113Z,16.48
2023-05-25T06:40:57.689Z,16.56
2023-05-25T06:43:25.631Z,16.32
2023-05-25T06:45:54.200Z,16.36
2023-05-25T06:48:23.042Z,16.49
2023-05-25T06:50:51.188Z,16.43
2023-05-25T06:53:19.208Z,16.31
2023-05-25T06:55:47.676Z,16.29
2023-05-25T06:58:15.881Z,16.21
2023-05-25T07:00:44.815Z,16.11
2023-05-25T07:03:15.080Z,16.26
2023-05-25T07:05:43.293Z,16.38
2023-05-25T07:08:11.732Z,16.36
2023-05-25T07:10:40.109Z,16.19
2023-05-25T07:13:08.062Z,16.12
2023-05-25T07:15:36.245Z,15.98
2023-05-25T07:18:04.718Z,15.90
2023-05-25T07:20:34.578Z,15.97
2023-05-25T07:23:02.828Z,16.00
2023-05-25T07:25:31.871Z,16.03
2023-05-25T07:28:00.355Z,16.07
2023-05-25T07:30:28.335Z,16.06
2023-05-25T07:32:58.523Z,16.13
2023-05-25T07:35:26.963Z,16.17
2023-05-25T07:38:00.617Z,16.45
2023-05-25T07:40:29.190Z,16.43
2023-05-25T07:42:57.530Z,16.57
2023-05-25T07:45:25.705Z,16.79
2023-05-25T07:47:54.363Z,17.16
2023-05-25T07:50:22.602Z,17.42
2023-05-25T07:52:50.572Z,17.55
2023-05-25T07:55:20.475Z,17.65
2023-05-25T07:57:48.452Z,17.69
2023-05-25T08:00:16.748Z,17.90
2023-05-25T08:02:45.847Z,18.06
2023-05-25T08:05:14.263Z,17.92
2023-05-25T08:07:42.992Z,17.80
2023-05-25T08:10:12.096Z,17.80
2023-05-25T08:12:49.038Z,17.86
2023-05-25T08:15:18.442Z,18.17
2023-05-25T08:17:51.232Z,18.41
2023-05-25T08:20:19.991Z,18.22
2023-05-25T08:22:48.071Z,18.09
2023-05-25T08:25:16.307Z,18.51
2023-05-25T08:27:44.686Z,17.92
2023-05-25T08:30:12.915Z,18.18
2023-05-25T08:32:41.119Z,18.33
2023-05-25T08:35:10.455Z,18.56
2023-05-25T08:37:38.667Z,18.03
2023-05-25T08:40:09.518Z,18.07
2023-05-25T08:42:37.876Z,18.24
2023-05-25T08:45:06.565Z,18.39
2023-05-25T08:47:41.229Z,18.55
2023-05-25T08:50:10.836Z,18.58
2023-05-25T08:52:41.295Z,18.55
2023-05-25T08:55:10.693Z,18.74
2023-05-25T08:57:58.220Z,18.61
2023-05-25T09:00:32.557Z,18.52
2023-05-25T09:03:12.456Z,18.40
2023-05-25T09:05:41.215Z,18.27
2023-05-25T09:08:10.765Z,17.94
2023-05-25T09:10:39.536Z,17.89
2023-05-25T09:15:39.282Z,17.94
2023-05-25T09:18:07.930Z,17.63
2023-05-25T09:20:36.236Z,17.44
2023-05-25T09:23:04.809Z,17.42
2023-05-25T09:25:34.294Z,17.61
2023-05-25T09:28:13.705Z,17.48
2023-05-25T09:30:51.666Z,17.51
2023-05-25T09:33:20.358Z,17.72
2023-05-25T09:35:52.169Z,17.91
2023-05-25T09:38:22.056Z,17.80
2023-05-25T09:40:51.601Z,17.55
2023-05-25T09:43:28.870Z,17.82
2023-05-25T09:46:01.716Z,17.79
2023-05-25T09:48:29.787Z,18.20
2023-05-25T09:50:58.419Z,18.86
2023-05-25T09:53:27.378Z,19.10
2023-05-25T09:55:56.764Z,18.65
2023-05-25T10:01:13.602Z,19.05
2023-05-25T10:04:03.520Z,18.94
2023-05-25T10:06:33.777Z,18.82
2023-05-25T10:09:02.523Z,18.72
2023-05-25T10:11:31.175Z,18.88
2023-05-25T10:14:04.404Z,19.12
2023-05-25T10:16:35.192Z,19.55
2023-05-25T10:19:28.349Z,19.83
2023-05-25T10:22:22.430Z,19.89
2023-05-25T10:24:57.904Z,19.95
2023-05-25T10:27:34.729Z,19.60
2023-05-25T10:30:03.376Z,20.05
2023-05-25T10:32:35.296Z,19.97
2023-05-25T10:35:05.878Z,19.87
2023-05-25T10:37:35.566Z,19.92
2023-05-25T10:40:04.170Z,20.34
2023-05-25T10:42:34.794Z,20.16
2023-05-25T10:45:05.897Z,21.81
2023-05-25T10:47:38.322Z,21.96
2023-05-25T10:50:07.537Z,21.43
2023-05-25T10:52:35.839Z,21.15
2023-05-25T10:55:07.611Z,21.55
2023-05-25T10:57:36.055Z,21.11
2023-05-25T11:00:08.581Z,21.07
2023-05-25T11:02:53.940Z,21.77
2023-05-25T11:05:28.226Z,21.10
2023-05-25T11:08:12.686Z,21.05
2023-05-25T11:10:50.016Z,21.44
2023-05-25T11:13:42.824Z,21.39
2023-05-25T11:16:20.501Z,22.56
2023-05-25T11:18:54.797Z,21.51
2023-05-25T11:21:24.210Z,21.81
2023-05-25T11:24:04.647Z,21.47
2023-05-25T11:26:36.848Z,21.51
2023-05-25T11:29:25.732Z,21.24
2023-05-25T11:31:55.876Z,21.71
2023-05-25T11:34:26.264Z,21.26
2023-05-25T11:36:56.140Z,21.71
2023-05-25T11:39:27.150Z,22.22
2023-05-25T11:41:58.143Z,22.28
2023-05-25T11:44:34.039Z,23.04
2023-05-25T11:47:06.294Z,22.48
2023-05-25T11:49:35.081Z,22.23
2023-05-25T11:52:07.574Z,21.28
2023-05-25T11:54:36.954Z,22.02
2023-05-25T11:57:05.314Z,22.29
2023-05-25T11:59:33.804Z,22.39
2023-05-25T12:02:04.156Z,22.65
2023-05-25T12:04:34.516Z,23.13
2023-05-25T12:07:08.194Z,21.54
2023-05-25T12:09:37.243Z,21.18
2023-05-25T12:12:05.799Z,21.25
2023-05-25T12:14:36.397Z,21.25
2023-05-25T12:17:06.806Z,22.30
2023-05-25T12:19:34.916Z,23.25
2023-05-25T12:22:03.696Z,21.83
2023-05-25T12:24:32.189Z,21.66
2023-05-25T12:27:02.198Z,22.47
2023-05-25T12:29:30.079Z,22.09
2023-05-25T12:32:08.027Z,22.40
2023-05-25T12:34:36.105Z,22.29
2023-05-25T12:37:04.408Z,22.68
2023-05-25T12:39:32.182Z,21.98
2023-05-25T12:42:02.677Z,21.80
2023-05-25T12:44:35.450Z,21.90
2023-05-25T12:47:17.142Z,21.51
2023-05-25T12:52:43.525Z,22.44
2023-05-25T12:55:28.530Z,21.81
2023-05-25T12:57:58.303Z,22.07
2023-05-25T13:03:18.675Z,22.02
2023-05-25T13:05:47.145Z,21.53
2023-05-25T13:08:16.088Z,21.02
2023-05-25T13:10:44.439Z,21.08
2023-05-25T13:13:13.507Z,21.46
2023-05-25T13:15:41.342Z,21.64
2023-05-25T13:18:09.430Z,22.97
2023-05-25T13:20:38.722Z,23.49
2023-05-25T13:23:06.779Z,23.92
2023-05-25T13:25:34.736Z,25.22
2023-05-25T13:28:03.098Z,25.19
2023-05-25T13:30:31.106Z,24.00
2023-05-25T13:32:59.260Z,22.64
2023-05-25T13:35:58.566Z,22.39
2023-05-25T13:38:27.494Z,22.62
2023-05-25T13:40:55.950Z,22.35
2023-05-25T13:43:23.806Z,21.42
2023-05-25T13:46:04.355Z,21.05
2023-05-25T13:48:33.490Z,21.62
2023-05-25T13:51:03.692Z,21.39
2023-05-25T13:53:32.110Z,21.46
2023-05-25T13:56:00.869Z,21.14
2023-05-25T13:58:29.063Z,20.85
2023-05-25T14:01:09.454Z,21.23
2023-05-25T14:03:39.534Z,21.58
2023-05-25T14:06:07.724Z,21.05
2023-05-25T14:08:35.704Z,20.69
2023-05-25T14:11:18.446Z,20.71
2023-05-25T14:13:49.914Z,20.49
2023-05-25T14:16:18.726Z,20.36
2023-05-25T14:18:46.939Z,20.26
2023-05-25T14:21:14.917Z,20.13
2023-05-25T14:23:43.521Z,20.24
2023-05-25T14:26:11.671Z,20.35
2023-05-25T14:28:39.757Z,20.27
2023-05-25T14:31:08.332Z,20.34
2023-05-25T14:33:37.569Z,20.17
2023-05-25T14:36:06.514Z,20.06
2023-05-25T14:38:35.013Z,20.28
2023-05-25T14:41:15.223Z,20.25
2023-05-25T14:43:43.788Z,20.26
2023-05-25T14:46:12.283Z,20.13
2023-05-25T14:48:40.517Z,19.83
2023-05-25T14:51:09.333Z,19.88
2023-05-25T14:53:37.717Z,19.83
2023-05-25T14:56:25.192Z,20.10
2023-05-25T14:58:53.164Z,19.92
2023-05-25T15:01:24.472Z,21.61
2023-05-25T15:03:54.150Z,20.25
2023-05-25T15:06:22.580Z,20.20
2023-05-25T15:08:50.785Z,20.47
2023-05-25T15:11:37.159Z,20.09
2023-05-25T15:14:18.205Z,20.04
2023-05-25T15:16:46.970Z,20.10
2023-05-25T15:19:17.513Z,19.73
2023-05-25T15:21:46.205Z,20.06
2023-05-25T15:24:17.038Z,20.00
2023-05-25T15:26:45.771Z,20.18
2023-05-25T15:29:27.726Z,19.91
2023-05-25T15:31:56.340Z,19.89
2023-05-25T15:34:37.125Z,20.00
2023-05-25T15:37:05.817Z,19.85
2023-05-25T15:39:36.723Z,19.57
2023-05-25T15:42:05.080Z,19.41
2023-05-25T15:44:34.350Z,19.08
2023-05-25T15:47:02.467Z,18.91
2023-05-25T15:49:33.730Z,18.91
2023-05-25T15:52:02.609Z,18.79
2023-05-25T15:54:30.940Z,18.64
2023-05-25T15:56:58.965Z,18.47
2023-05-25T15:59:27.356Z,18.22
2023-05-25T16:01:55.463Z,17.98
2023-05-25T16:04:24.036Z,17.93
2023-05-25T16:06:52.143Z,18.04
2023-05-25T16:09:20.238Z,17.82
2023-05-25T16:11:48.569Z,17.87
2023-05-25T16:14:16.809Z,17.77
2023-05-25T16:16:44.846Z,17.65
2023-05-25T16:19:14.193Z,17.59
2023-05-25T16:21:42.399Z,17.83
2023-05-25T16:24:24.930Z,18.43
2023-05-25T16:26:54.863Z,17.75
2023-05-25T16:29:23.399Z,17.45
2023-05-25T16:31:52.178Z,17.48
2023-05-25T16:34:20.379Z,17.41
2023-05-25T16:36:48.832Z,17.51
2023-05-25T16:39:17.220Z,17.44
2023-05-25T16:41:45.240Z,17.53
2023-05-25T16:44:13.807Z,17.41
2023-05-25T16:46:42.131Z,17.30
2023-05-25T16:49:10.316Z,17.40
2023-05-25T16:51:38.851Z,17.27
2023-05-25T16:54:07.406Z,17.13
2023-05-25T16:56:36.455Z,17.11
2023-05-25T16:59:04.987Z,16.99
2023-05-25T17:01:33.144Z,17.15
2023-05-25T17:04:01.429Z,17.03
2023-05-25T17:06:30.226Z,17.09
2023-05-25T17:08:58.466Z,17.02
2023-05-25T17:11:26.872Z,17.02
2023-05-25T17:13:56.125Z,16.95
2023-05-25T17:16:24.214Z,16.91
2023-05-25T17:18:52.287Z,16.88
2023-05-25T17:21:21.530Z,17.07
2023-05-25T17:23:49.933Z,17.18
2023-05-25T17:26:18.068Z,17.02
2023-05-25T17:28:46.683Z,16.96
2023-05-25T17:31:14.614Z,17.05
2023-05-25T17:33:42.659Z,16.95
2023-05-25T17:36:11.269Z,16.92
2023-05-25T17:38:39.381Z,16.93
2023-05-25T17:41:07.441Z,16.92
2023-05-25T17:43:35.857Z,16.88
2023-05-25T17:46:04.006Z,16.92
2023-05-25T17:48:32.217Z,16.90
2023-05-25T17:51:00.730Z,16.94
2023-05-25T17:53:28.910Z,16.71
2023-05-25T17:55:57.451Z,16.64
2023-05-25T17:58:26.330Z,16.70
2023-05-25T18:00:54.610Z,16.65
2023-05-25T18:03:24.593Z,16.59
2023-05-25T18:05:52.925Z,16.44
2023-05-25T18:08:21.725Z,16.30
2023-05-25T18:10:50.955Z,16.33
2023-05-25T18:13:19.059Z,16.40
2023-05-25T18:15:47.363Z,16.40
2023-05-25T18:18:17.005Z,16.46
2023-05-25T18:20:45.073Z,16.42
2023-05-25T18:23:13.741Z,16.28
2023-05-25T18:25:42.338Z,16.28
2023-05-25T18:28:12.730Z,16.30
2023-05-25T18:30:41.635Z,16.27
2023-05-25T18:33:10.980Z,16.41
2023-05-25T18:35:39.516Z,16.45
2023-05-25T18:38:07.854Z,16.28
2023-05-25T18:40:36.465Z,16.28
2023-05-25T18:43:06.137Z,16.38
2023-05-25T18:45:34.704Z,16.03
2023-05-25T18:48:12.469Z,16.03
2023-05-25T18:50:42.489Z,15.96
2023-05-25T18:53:11.600Z,15.82
2023-05-25T18:58:25.646Z,16.02
2023-05-25T19:00:53.677Z,15.89
2023-05-25T19:03:21.996Z,15.90
2023-05-25T19:05:50.852Z,15.94
2023-05-25T19:08:19.095Z,15.92
2023-05-25T19:10:47.364Z,15.85
2023-05-25T19:13:15.836Z,15.79
2023-05-25T19:15:44.399Z,15.73
2023-05-25T19:18:12.956Z,15.70
2023-05-25T19:20:41.725Z,15.80
2023-05-25T19:23:10.546Z,15.71
2023-05-25T19:25:38.815Z,15.63
2023-05-25T19:28:07.360Z,15.58
2023-05-25T19:30:35.368Z,15.59
2023-05-25T19:33:03.495Z,15.56
2023-05-25T19:35:32.064Z,15.53
2023-05-25T19:38:01.891Z,15.55
2023-05-25T19:40:31.504Z,15.57
2023-05-25T19:43:00.266Z,15.56
2023-05-25T19:45:28.472Z,15.52
2023-05-25T19:47:57.484Z,15.52
2023-05-25T19:50:30.774Z,15.56
2023-05-25T19:52:59.129Z,15.54
2023-05-25T19:55:28.175Z,15.45
2023-05-25T19:57:56.278Z,15.47
2023-05-25T20:00:26.821Z,15.43
2023-05-25T20:02:56.227Z,15.32
2023-05-25T20:05:24.592Z,15.35
2023-05-25T20:07:52.996Z,15.41
2023-05-25T20:10:21.500Z,15.42
2023-05-25T20:12:49.741Z,15.34
2023-05-25T20:15:18.213Z,15.38
2023-05-25T20:17:47.117Z,15.42
2023-05-25T20:20:15.425Z,15.33
2023-05-25T20:22:43.423Z,15.27
2023-05-25T20:25:11.975Z,15.29
2023-05-25T20:27:40.051Z,15.17
2023-05-25T20:30:08.473Z,15.23
2023-05-25T20:32:36.922Z,15.23
2023-05-25T20:35:05.426Z,15.19
2023-05-25T20:37:33.386Z,15.11
2023-05-25T20:40:01.877Z,15.26
2023-05-25T20:42:31.462Z,15.29
2023-05-25T20:44:59.466Z,15.41
2023-05-25T20:47:28.038Z,15.48
2023-05-25T20:49:56.413Z,15.42
2023-05-25T20:52:25.401Z,15.45
2023-05-25T20:54:53.677Z,15.59
2023-05-25T20:57:21.742Z,15.62
2023-05-25T20:59:49.522Z,15.61
2023-05-25T21:02:18.367Z,15.40
2023-05-25T21:04:46.567Z,15.33
2023-05-25T21:07:14.551Z,15.22
2023-05-25T21:09:42.842Z,15.16
2023-05-25T21:12:10.962Z,15.09
2023-05-25T21:14:39.046Z,15.07
2023-05-25T21:17:07.507Z,14.97
2023-05-25T21:19:36.869Z,14.99
2023-05-25T21:22:05.076Z,15.03
2023-05-25T21:24:33.419Z,15.04
2023-05-25T21:27:01.778Z,15.03
2023-05-25T21:29:31.308Z,15.03
2023-05-25T21:32:01.660Z,15.13
2023-05-25T21:34:30.686Z,15.01
2023-05-25T21:36:58.712Z,15.01
2023-05-25T21:39:27.137Z,14.98
2023-05-25T21:41:55.242Z,15.00
2023-05-25T21:44:23.563Z,14.96
2023-05-25T21:46:52.059Z,14.86
2023-05-25T21:49:20.162Z,14.93
2023-05-25T21:51:48.192Z,14.96
2023-05-25T21:54:16.854Z,15.02
2023-05-25T21:56:44.853Z,15.04
2023-05-25T21:59:12.960Z,15.10
2023-05-25T22:01:41.526Z,15.07
2023-05-25T22:04:10.152Z,15.27
2023-05-25T22:06:38.300Z,14.97
2023-05-25T22:09:06.269Z,14.72
2023-05-25T22:11:37.786Z,14.88
2023-05-25T22:14:06.223Z,14.76
2023-05-25T22:16:34.539Z,14.66
2023-05-25T22:19:02.722Z,14.54
2023-05-25T22:21:30.774Z,14.54
2023-05-25T22:24:00.015Z,14.57
2023-05-25T22:26:29.455Z,14.61
2023-05-25T22:28:57.698Z,14.59
2023-05-25T22:31:27.265Z,14.49
2023-05-25T22:33:55.410Z,14.52
2023-05-25T22:36:23.439Z,14.49
2023-05-25T22:38:51.906Z,14.33
2023-05-25T22:41:19.916Z,14.41
2023-05-25T22:43:58.239Z,14.37
2023-05-25T22:46:26.372Z,14.36
2023-05-25T22:48:54.540Z,14.53
2023-05-25T22:51:22.987Z,14.56
2023-05-25T22:53:50.987Z,14.61
2023-05-25T22:56:18.978Z,14.42
2023-05-25T22:58:47.367Z,14.40
2023-05-25T23:01:15.493Z,14.52
2023-05-25T23:03:43.683Z,14.51
2023-05-25T23:06:12.127Z,14.53
2023-05-25T23:08:40.035Z,14.56
2023-05-25T23:11:08.180Z,14.43
2023-05-25T23:13:37.350Z,14.30
2023-05-25T23:16:05.650Z,14.40
2023-05-25T23:18:33.756Z,14.35
2023-05-25T23:21:02.281Z,14.30
2023-05-25T23:23:30.330Z,14.39
2023-05-25T23:25:58.235Z,14.23
2023-05-25T23:28:27.085Z,14.31
2023-05-25T23:30:55.849Z,14.39
2023-05-25T23:33:23.799Z,14.28
2023-05-25T23:35:52.104Z,14.27
2023-05-25T23:38:20.118Z,14.26
2023-05-25T23:40:48.204Z,14.15
2023-05-25T23:43:28.481Z,14.17
2023-05-25T23:45:56.615Z,14.08
2023-05-25T23:48:24.756Z,14.19
2023-05-25T23:50:53.396Z,14.24
2023-05-25T23:53:21.560Z,14.21
2023-05-25T23:55:49.768Z,14.11
2023-05-25T23:58:18.258Z,14.07
